Time;durP1;ratioP1;P1;durP2;ratioP2;P2;SDS_P1;SDS_P2;PMS_P1;PMS_P2;Temp;Humidity;BMP_temperature;BMP_pressure;BME280_temperature;BME280_humidity;BME280_pressure;Samples;Min_cycle;Max_cycle;Signal;HPM_P1;HPM_P2
2023/03/04 00:00:46;;;;;;;14.65;1.50;;;9.10;84.60;;;;;;5052630;28;20034;-76
2023/03/04 00:03:14;;;;;;;12.05;1.88;;;9.00;84.90;;;;;;5074527;28;20081;-76
2023/03/04 00:05:40;;;;;;;11.20;1.23;;;9.10;84.90;;;;;;5058473;28;20368;-76
2023/03/04 00:08:06;;;;;;;13.63;1.58;;;9.10;84.80;;;;;;5092458;28;20035;-76
2023/03/04 00:10:32;;;;;;;19.33;3.05;;;9.20;84.50;;;;;;5092140;28;20032;-76
2023/03/04 00:12:57;;;;;;;21.67;2.13;;;9.20;84.50;;;;;;5073394;28;20043;-76
2023/03/04 00:15:23;;;;;;;19.83;2.95;;;9.20;84.60;;;;;;5092330;28;20110;-76
2023/03/04 00:17:48;;;;;;;16.38;2.65;;;9.10;84.80;;;;;;5057423;28;20421;-76
2023/03/04 00:20:14;;;;;;;19.60;2.95;;;8.90;85.20;;;;;;5074348;28;20049;-76
2023/03/04 00:22:40;;;;;;;16.92;2.05;;;8.90;85.50;;;;;;5074037;28;20032;-75
2023/03/04 00:25:06;;;;;;;15.60;1.90;;;8.90;85.60;;;;;;5091404;28;20107;-76
2023/03/04 00:27:32;;;;;;;17.40;2.13;;;8.90;85.60;;;;;;5073616;28;20546;-76
2023/03/04 00:29:57;;;;;;;14.60;1.67;;;8.90;85.70;;;;;;5054612;28;20056;-76
2023/03/04 00:32:23;;;;;;;11.90;1.52;;;8.80;85.90;;;;;;5074052;28;20044;-76
2023/03/04 00:34:48;;;;;;;19.10;1.95;;;8.90;86.00;;;;;;5092064;28;20063;-77
2023/03/04 00:37:14;;;;;;;13.20;1.98;;;8.90;85.90;;;;;;5073752;28;20036;-76
2023/03/04 00:39:40;;;;;;;17.27;1.48;;;8.90;86.00;;;;;;5073459;28;20031;-77
2023/03/04 00:42:05;;;;;;;19.23;2.03;;;8.80;86.50;;;;;;5073012;28;20036;-77
2023/03/04 00:44:31;;;;;;;13.60;1.45;;;8.80;86.80;;;;;;5056886;28;20036;-76
2023/03/04 00:46:57;;;;;;;13.10;1.88;;;8.90;86.80;;;;;;5090670;28;20448;-77
2023/03/04 00:49:22;;;;;;;15.88;1.90;;;8.90;86.50;;;;;;5073424;28;20487;-77
2023/03/04 00:51:48;;;;;;;11.63;1.50;;;9.00;86.30;;;;;;5073546;28;20480;-76
2023/03/04 00:54:13;;;;;;;18.15;2.53;;;9.00;86.20;;;;;;5054670;28;20503;-76
2023/03/04 00:56:39;;;;;;;14.48;1.45;;;9.00;86.40;;;;;;5040330;28;20349;-78
2023/03/04 00:59:05;;;;;;;18.92;2.15;;;9.00;86.40;;;;;;5091885;28;20046;-77
2023/03/04 01:01:30;;;;;;;14.57;1.40;;;9.00;86.30;;;;;;5091418;28;20032;-77
2023/03/04 01:03:56;;;;;;;13.13;1.50;;;9.00;86.50;;;;;;5055004;28;20032;-76
2023/03/04 01:06:22;;;;;;;12.80;1.60;;;9.00;86.60;;;;;;5056817;28;20044;-76
2023/03/04 01:08:47;;;;;;;11.52;1.20;;;9.10;86.60;;;;;;5091620;28;20079;-76
2023/03/04 01:11:13;;;;;;;12.35;1.23;;;9.10;86.50;;;;;;5070353;28;20089;-77
2023/03/04 01:13:39;;;;;;;15.80;1.45;;;9.20;86.50;;;;;;5053780;28;20057;-77
2023/03/04 01:16:06;;;;;;;12.00;1.30;;;9.30;86.40;;;;;;5091438;28;20073;-76
2023/03/04 01:18:31;;;;;;;13.55;1.40;;;9.30;86.30;;;;;;5073396;28;20372;-76
2023/03/04 01:20:57;;;;;;;12.65;1.30;;;9.20;86.40;;;;;;5091066;28;20032;-77
2023/03/04 01:23:23;;;;;;;14.43;1.60;;;9.10;86.70;;;;;;5073172;28;20433;-76
2023/03/04 01:25:48;;;;;;;13.80;1.85;;;9.10;86.90;;;;;;5073398;28;20038;-76
2023/03/04 01:28:14;;;;;;;12.40;1.52;;;9.00;87.10;;;;;;5038502;28;20485;-75
2023/03/04 01:30:40;;;;;;;15.85;1.55;;;9.10;87.30;;;;;;5072645;28;20419;-77
2023/03/04 01:33:06;;;;;;;13.38;1.70;;;9.10;87.20;;;;;;5056230;28;20036;-76
2023/03/04 01:35:31;;;;;;;17.40;1.83;;;9.00;87.50;;;;;;5091445;28;20111;-76
2023/03/04 01:37:57;;;;;;;19.25;1.63;;;9.00;87.60;;;;;;5059940;28;20040;-76
2023/03/04 01:40:23;;;;;;;13.52;2.28;;;8.80;87.60;;;;;;5077189;28;20064;-76
2023/03/04 01:42:48;;;;;;;14.27;1.35;;;8.80;88.10;;;;;;5094951;28;20111;-77
2023/03/04 01:45:17;;;;;;;14.90;1.48;;;8.80;88.10;;;;;;5093252;28;20066;-77
2023/03/04 01:47:47;;;;;;;13.27;1.20;;;8.70;88.70;;;;;;5093064;28;20069;-76
2023/03/04 01:50:22;;;;;;;9.68;1.30;;;8.60;89.00;;;;;;5095073;28;20036;-78
2023/03/04 01:52:48;;;;;;;14.18;1.20;;;8.80;89.00;;;;;;5076707;28;20027;-78
2023/03/04 01:55:16;;;;;;;11.15;1.75;;;8.80;88.70;;;;;;5029716;28;20043;-77
2023/03/04 01:57:42;;;;;;;11.25;1.00;;;8.80;88.80;;;;;;5094796;28;20039;-78
2023/03/04 02:00:21;;;;;;;12.63;1.13;;;8.80;88.80;;;;;;5076542;28;20464;-78
2023/03/04 02:02:50;;;;;;;14.05;1.50;;;8.80;88.90;;;;;;5076252;28;20122;-78
2023/03/04 02:05:16;;;;;;;10.38;1.52;;;8.90;89.20;;;;;;5095172;28;20023;-77
2023/03/04 02:07:42;;;;;;;14.77;1.95;;;8.90;89.20;;;;;;5076581;28;20052;-77
2023/03/04 02:10:09;;;;;;;14.55;1.50;;;8.90;89.10;;;;;;5076203;28;20067;-77
2023/03/04 02:12:35;;;;;;;11.02;1.05;;;8.70;88.90;;;;;;5094555;28;20533;-77
2023/03/04 02:15:01;;;;;;;13.30;1.20;;;8.60;89.50;;;;;;5076203;28;20028;-77
2023/03/04 02:17:27;;;;;;;14.77;1.73;;;8.50;90.00;;;;;;5076098;28;20036;-77
2023/03/04 02:20:09;;;;;;;13.02;2.65;;;8.50;90.20;;;;;;5094602;28;20488;-78
2023/03/04 02:22:42;;;;;;;17.25;1.63;;;8.60;90.20;;;;;;5076330;28;20475;-77
2023/03/04 02:25:12;;;;;;;17.63;1.38;;;8.70;90.10;;;;;;5065654;28;20028;-77
2023/03/04 02:27:38;;;;;;;13.65;1.63;;;8.70;89.30;;;;;;5094298;28;20032;-77
2023/03/04 02:30:05;;;;;;;12.27;1.13;;;8.60;89.70;;;;;;5072379;28;20052;-77
2023/03/04 02:32:30;;;;;;;22.42;2.83;;;8.60;89.80;;;;;;5072805;28;20063;-77
2023/03/04 02:34:56;;;;;;;14.27;1.40;;;8.70;89.80;;;;;;5074136;28;20364;-77
2023/03/04 02:37:22;;;;;;;10.20;1.27;;;8.70;89.70;;;;;;5072744;28;20032;-78
2023/03/04 02:39:49;;;;;;;11.45;1.23;;;8.70;89.70;;;;;;5072745;28;20035;-77
2023/03/04 02:42:17;;;;;;;18.88;1.67;;;8.80;89.70;;;;;;5055394;28;20062;-78
2023/03/04 02:44:46;;;;;;;14.95;1.70;;;8.70;89.10;;;;;;5072614;28;20040;-78
2023/03/04 02:47:16;;;;;;;13.70;1.30;;;8.80;88.70;;;;;;5072686;28;20074;-77
2023/03/04 02:49:42;;;;;;;17.40;1.50;;;8.70;88.80;;;;;;5070478;28;20024;-77
2023/03/04 02:52:19;;;;;;;14.35;1.10;;;8.60;89.10;;;;;;5072031;28;20500;-77
2023/03/04 02:54:45;;;;;;;12.95;1.85;;;8.60;88.80;;;;;;5073666;28;20027;-77
2023/03/04 02:57:12;;;;;;;10.60;1.00;;;8.50;89.30;;;;;;5072468;28;20389;-77
2023/03/04 02:59:39;;;;;;;15.32;1.23;;;8.60;89.40;;;;;;5073685;28;20102;-77
2023/03/04 03:02:06;;;;;;;9.05;1.20;;;8.60;89.30;;;;;;5071847;28;20115;-77
2023/03/04 03:04:33;;;;;;;9.95;0.90;;;8.70;89.10;;;;;;5073659;28;20020;-76
2023/03/04 03:06:59;;;;;;;8.32;1.23;;;8.70;89.00;;;;;;5072151;28;20115;-76
2023/03/04 03:09:24;;;;;;;11.70;0.95;;;8.70;88.80;;;;;;5072132;28;20123;-76
2023/03/04 03:11:50;;;;;;;14.40;1.42;;;8.80;88.70;;;;;;5071679;28;20501;-77
2023/03/04 03:14:15;;;;;;;13.32;1.55;;;8.80;88.80;;;;;;5071557;28;20065;-77
2023/03/04 03:16:42;;;;;;;14.18;1.48;;;8.80;89.00;;;;;;5071994;28;20028;-77
2023/03/04 03:19:07;;;;;;;8.75;1.10;;;8.80;89.60;;;;;;5072029;28;20040;-77
2023/03/04 03:21:33;;;;;;;12.63;1.20;;;8.90;88.80;;;;;;5072990;28;20055;-74
2023/03/04 03:23:59;;;;;;;11.57;1.75;;;9.00;88.60;;;;;;5073412;28;20031;-74
2023/03/04 03:26:24;;;;;;;14.88;1.17;;;9.00;88.60;;;;;;5074574;28;20067;-74
2023/03/04 03:28:50;;;;;;;13.40;1.58;;;9.00;88.30;;;;;;5080302;28;20052;-74
2023/03/04 03:31:16;;;;;;;14.68;1.55;;;9.00;88.50;;;;;;5094408;28;20024;-74
2023/03/04 03:33:41;;;;;;;12.68;1.13;;;9.00;88.70;;;;;;5094658;28;20054;-74
2023/03/04 03:36:07;;;;;;;9.80;0.95;;;9.10;88.50;;;;;;5094696;28;20044;-74
2023/03/04 03:38:33;;;;;;;13.40;1.15;;;9.10;88.40;;;;;;5094743;28;20032;-74
2023/03/04 03:40:59;;;;;;;12.88;0.82;;;9.10;88.20;;;;;;5059570;28;20028;-73
2023/03/04 03:43:24;;;;;;;12.27;1.20;;;9.10;88.00;;;;;;5043223;28;20061;-73
2023/03/04 03:45:50;;;;;;;14.57;1.67;;;9.00;88.60;;;;;;5076281;28;20197;-74
2023/03/04 03:48:16;;;;;;;10.50;0.82;;;9.00;88.80;;;;;;5076063;28;20032;-74
2023/03/04 03:50:42;;;;;;;12.93;0.77;;;9.10;88.80;;;;;;5076661;28;20028;-74
2023/03/04 03:53:08;;;;;;;12.52;1.60;;;9.10;88.80;;;;;;5075916;28;20051;-74
2023/03/04 03:55:34;;;;;;;15.80;1.08;;;9.10;88.90;;;;;;5094239;28;20032;-74
2023/03/04 03:57:59;;;;;;;11.68;1.30;;;9.10;89.10;;;;;;5094080;28;20402;-73
2023/03/04 04:00:25;;;;;;;13.27;1.63;;;9.00;89.40;;;;;;5093865;28;20046;-74
2023/03/04 04:02:53;;;;;;;12.75;1.00;;;9.00;89.70;;;;;;5075747;28;20047;-73
2023/03/04 04:05:19;;;;;;;12.55;1.20;;;9.00;89.70;;;;;;5075915;28;20035;-73
2023/03/04 04:07:45;;;;;;;16.85;1.75;;;9.00;89.80;;;;;;5075852;28;20114;-73
2023/03/04 04:10:11;;;;;;;10.30;1.02;;;9.00;89.90;;;;;;5093856;28;20104;-73
2023/03/04 04:12:36;;;;;;;18.50;1.05;;;8.90;90.00;;;;;;5075518;28;20032;-74
2023/03/04 04:15:02;;;;;;;13.48;1.10;;;9.00;90.00;;;;;;5076378;28;20136;-75
2023/03/04 04:17:28;;;;;;;12.57;1.15;;;9.10;90.00;;;;;;5059408;28;20041;-73
2023/03/04 04:19:54;;;;;;;10.57;1.33;;;9.00;90.00;;;;;;5093970;28;20483;-74
2023/03/04 04:22:20;;;;;;;10.13;0.82;;;9.10;89.90;;;;;;5093423;28;20029;-74
2023/03/04 04:24:47;;;;;;;13.73;0.95;;;9.00;90.00;;;;;;5075395;28;20469;-75
2023/03/04 04:27:13;;;;;;;13.40;1.58;;;9.00;90.10;;;;;;5093626;28;20028;-75
2023/03/04 04:29:40;;;;;;;11.52;0.93;;;9.00;90.10;;;;;;5094448;28;20081;-74
2023/03/04 04:32:06;;;;;;;8.27;0.70;;;9.00;90.10;;;;;;5094130;28;20036;-73
2023/03/04 04:34:32;;;;;;;12.15;1.15;;;8.90;90.30;;;;;;5094302;28;20024;-74
2023/03/04 04:36:57;;;;;;;9.73;1.25;;;8.90;90.40;;;;;;5042722;28;20081;-73
2023/03/04 04:39:23;;;;;;;6.93;1.20;;;8.90;90.50;;;;;;5093324;28;20021;-73
2023/03/04 04:41:48;;;;;;;7.95;0.93;;;9.00;90.30;;;;;;5075207;28;20482;-74
2023/03/04 04:44:14;;;;;;;9.10;0.63;;;9.00;90.20;;;;;;5093175;28;20024;-74
2023/03/04 04:46:40;;;;;;;10.27;0.80;;;9.00;90.20;;;;;;5075122;28;20368;-74
2023/03/04 04:49:07;;;;;;;8.90;1.83;;;9.00;90.20;;;;;;5093176;28;20042;-74
2023/03/04 04:51:35;;;;;;;12.63;1.45;;;9.00;90.30;;;;;;5074840;28;20388;-74
2023/03/04 04:54:00;;;;;;;10.68;0.88;;;8.90;90.50;;;;;;5093172;28;20058;-74
2023/03/04 04:56:27;;;;;;;6.78;0.57;;;8.90;90.60;;;;;;5092830;28;20638;-75
2023/03/04 04:58:56;;;;;;;6.13;0.60;;;8.90;90.50;;;;;;5092950;28;20078;-74
2023/03/04 05:01:21;;;;;;;11.18;0.70;;;9.00;90.40;;;;;;5092944;28;20020;-74
2023/03/04 05:03:49;;;;;;;6.90;0.55;;;9.00;90.40;;;;;;5074906;28;20428;-74
2023/03/04 05:06:15;;;;;;;7.43;0.50;;;9.10;90.30;;;;;;5075277;28;20399;-74
2023/03/04 05:08:41;;;;;;;11.23;1.17;;;9.20;90.30;;;;;;5092921;28;20028;-74
2023/03/04 05:11:07;;;;;;;9.55;0.80;;;9.10;90.30;;;;;;5093077;28;20032;-74
2023/03/04 05:13:34;;;;;;;14.82;1.85;;;9.10;90.30;;;;;;5097037;28;20036;-74
2023/03/04 05:16:00;;;;;;;5.63;0.70;;;9.10;90.30;;;;;;5097713;28;20035;-74
2023/03/04 05:18:27;;;;;;;10.73;0.70;;;9.10;90.50;;;;;;5097058;28;20031;-75
2023/03/04 05:20:54;;;;;;;7.32;0.70;;;9.20;90.40;;;;;;5097367;28;20021;-74
2023/03/04 05:23:20;;;;;;;10.15;0.70;;;9.20;90.50;;;;;;5078599;28;20435;-74
2023/03/04 05:25:47;;;;;;;11.90;1.00;;;9.20;90.50;;;;;;5078636;28;20036;-74
2023/03/04 05:28:13;;;;;;;9.80;0.68;;;9.20;90.60;;;;;;5096912;28;20078;-74
2023/03/04 05:30:40;;;;;;;9.18;0.55;;;9.20;90.70;;;;;;5075245;28;20044;-74
2023/03/04 05:33:07;;;;;;;8.10;1.15;;;9.20;90.70;;;;;;5076405;28;20028;-74
2023/03/04 05:35:34;;;;;;;10.45;0.93;;;9.10;90.70;;;;;;5075255;28;20025;-74
2023/03/04 05:38:01;;;;;;;8.63;0.73;;;9.00;90.90;;;;;;5076506;28;20457;-74
2023/03/04 05:40:27;;;;;;;9.02;0.73;;;8.90;91.20;;;;;;5076338;28;20480;-74
2023/03/04 05:42:52;;;;;;;7.68;0.50;;;8.80;91.30;;;;;;5075861;28;20037;-74
2023/03/04 05:45:18;;;;;;;6.20;0.47;;;8.90;91.30;;;;;;5076011;28;20066;-74
2023/03/04 05:47:44;;;;;;;8.60;0.60;;;8.90;91.30;;;;;;5074762;28;20025;-74
2023/03/04 05:50:10;;;;;;;7.60;0.85;;;9.00;91.40;;;;;;5075080;28;20041;-73
2023/03/04 05:52:36;;;;;;;8.55;0.68;;;9.00;91.30;;;;;;5076078;28;20040;-74
2023/03/04 05:55:01;;;;;;;7.45;0.77;;;9.00;91.40;;;;;;5075984;28;20480;-74
2023/03/04 05:57:27;;;;;;;6.53;0.50;;;9.00;91.30;;;;;;5074943;28;20025;-74
2023/03/04 05:59:52;;;;;;;9.98;0.60;;;8.90;91.50;;;;;;5075000;28;20377;-74
2023/03/04 06:02:18;;;;;;;11.40;0.68;;;8.90;91.50;;;;;;5057800;28;20443;-73
2023/03/04 06:04:44;;;;;;;8.98;0.50;;;8.90;91.60;;;;;;5058182;28;20033;-74
2023/03/04 06:07:09;;;;;;;9.52;0.70;;;8.90;91.70;;;;;;5074901;28;20445;-74
2023/03/04 06:09:35;;;;;;;8.75;0.70;;;8.80;91.60;;;;;;5074531;28;20033;-73
2023/03/04 06:12:01;;;;;;;5.82;0.68;;;8.90;91.70;;;;;;5057695;28;20400;-73
2023/03/04 06:14:26;;;;;;;7.30;0.60;;;8.90;91.90;;;;;;5075605;28;20404;-74
2023/03/04 06:16:52;;;;;;;8.68;0.55;;;8.90;92.10;;;;;;5075808;28;20385;-73
2023/03/04 06:19:18;;;;;;;5.53;0.60;;;8.90;91.90;;;;;;5074375;28;20044;-73
2023/03/04 06:21:44;;;;;;;11.27;1.05;;;8.90;91.90;;;;;;5076240;28;20029;-74
2023/03/04 06:24:09;;;;;;;9.52;0.70;;;9.00;91.90;;;;;;5074630;28;20029;-74
2023/03/04 06:26:35;;;;;;;7.25;0.77;;;8.90;91.90;;;;;;5075396;28;20054;-73
2023/03/04 06:29:00;;;;;;;8.40;0.57;;;9.00;91.90;;;;;;5080959;28;20094;-74
2023/03/04 06:31:26;;;;;;;7.68;0.57;;;8.90;92.00;;;;;;5077202;28;20036;-74
2023/03/04 06:33:51;;;;;;;13.30;0.60;;;9.00;92.10;;;;;;5060889;28;20526;-74
2023/03/04 06:36:18;;;;;;;9.02;0.90;;;9.00;92.10;;;;;;5060896;28;20043;-74
2023/03/04 06:38:44;;;;;;;7.88;1.00;;;9.00;92.20;;;;;;5095218;28;20055;-73
2023/03/04 06:41:12;;;;;;;9.00;0.60;;;9.00;92.40;;;;;;5060940;28;20082;-74
2023/03/04 06:43:38;;;;;;;10.63;1.13;;;9.00;92.50;;;;;;5095531;28;20027;-73
2023/03/04 06:46:05;;;;;;;14.13;0.88;;;9.00;92.40;;;;;;5095269;28;20500;-73
2023/03/04 06:48:30;;;;;;;10.55;0.90;;;9.00;92.50;;;;;;5077603;28;20100;-74
2023/03/04 06:50:56;;;;;;;8.73;0.70;;;8.90;92.50;;;;;;5076838;28;20024;-74
2023/03/04 06:53:22;;;;;;;8.68;0.80;;;8.90;92.70;;;;;;5095190;28;20135;-73
2023/03/04 06:55:48;;;;;;;8.15;0.65;;;8.90;92.70;;;;;;5060511;28;20170;-74
2023/03/04 06:58:16;;;;;;;8.48;0.85;;;8.80;92.70;;;;;;5076526;28;20032;-73
2023/03/04 07:00:42;;;;;;;7.93;0.60;;;8.80;92.90;;;;;;5095110;28;20028;-73
2023/03/04 07:03:10;;;;;;;6.18;0.57;;;8.70;92.80;;;;;;5094982;28;20040;-74
2023/03/04 07:05:35;;;;;;;9.70;1.05;;;8.70;92.90;;;;;;5077526;28;20038;-73
2023/03/04 07:08:01;;;;;;;13.93;1.00;;;8.70;93.00;;;;;;5077392;28;20166;-74
2023/03/04 07:10:27;;;;;;;10.25;0.70;;;8.70;93.20;;;;;;5076853;28;20032;-73
2023/03/04 07:12:52;;;;;;;8.00;0.88;;;8.70;93.30;;;;;;5060021;28;20040;-73
2023/03/04 07:15:18;;;;;;;9.02;0.93;;;8.70;93.40;;;;;;5094987;28;20028;-74
2023/03/04 07:17:44;;;;;;;7.65;0.88;;;8.70;93.60;;;;;;5076987;28;20453;-73
2023/03/04 07:20:10;;;;;;;5.93;0.50;;;8.70;94.00;;;;;;5094475;28;20036;-78
2023/03/04 07:22:36;;;;;;;8.30;0.57;;;8.60;94.00;;;;;;5076744;28;20032;-74
2023/03/04 07:25:01;;;;;;;7.07;0.70;;;8.60;94.10;;;;;;5076759;28;20101;-74
2023/03/04 07:27:27;;;;;;;9.07;1.02;;;8.60;94.20;;;;;;5094731;28;20222;-74
2023/03/04 07:29:53;;;;;;;9.00;0.82;;;8.60;94.50;;;;;;5072833;28;20053;-74
2023/03/04 07:32:18;;;;;;;10.77;0.82;;;8.60;94.70;;;;;;5072815;28;20052;-74
2023/03/04 07:34:44;;;;;;;5.25;0.60;;;8.60;94.80;;;;;;5072592;28;20025;-74
2023/03/04 07:37:10;;;;;;;6.90;0.77;;;8.60;94.80;;;;;;5072796;28;20029;-73
2023/03/04 07:39:35;;;;;;;9.85;0.70;;;8.60;95.00;;;;;;5073209;28;20033;-73
2023/03/04 07:42:01;;;;;;;7.93;0.77;;;8.60;95.00;;;;;;5056295;28;20031;-79
2023/03/04 07:44:26;;;;;;;8.20;0.55;;;8.60;95.10;;;;;;5072693;28;20037;-78
2023/03/04 07:46:52;;;;;;;10.02;0.73;;;8.60;95.20;;;;;;5040045;28;20032;-79
2023/03/04 07:49:18;;;;;;;6.07;0.73;;;8.70;95.50;;;;;;5072932;28;20036;-80
2023/03/04 07:51:43;;;;;;;10.80;1.23;;;8.70;96.20;;;;;;5039322;28;20473;-84
2023/03/04 07:54:09;;;;;;;12.15;0.90;;;8.80;96.30;;;;;;5073539;28;20052;-81
2023/03/04 07:56:35;;;;;;;12.60;0.77;;;8.80;96.40;;;;;;5072732;28;20024;-83
2023/03/04 07:59:01;;;;;;;7.72;0.75;;;8.80;96.40;;;;;;5072932;28;20044;-82
2023/03/04 08:01:33;;;;;;;9.70;0.68;;;8.80;96.60;;;;;;5073962;28;20110;-81
2023/03/04 08:03:59;;;;;;;7.60;0.77;;;8.80;97.00;;;;;;5074801;28;20136;-84
2023/03/04 08:06:25;;;;;;;6.10;0.45;;;8.80;97.30;;;;;;5079014;28;20480;-84
2023/03/04 08:09:04;;;;;;;7.57;0.75;;;8.80;97.50;;;;;;5073135;28;20138;-75
2023/03/04 08:11:31;;;;;;;7.35;0.85;;;8.80;97.80;;;;;;5075209;28;20109;-76
2023/03/04 08:13:57;;;;;;;4.72;0.70;;;8.90;98.20;;;;;;5074107;28;20035;-77
2023/03/04 08:16:24;;;;;;;11.93;0.70;;;9.00;98.30;;;;;;5074628;28;20035;-74
2023/03/04 08:18:52;;;;;;;5.72;0.40;;;9.00;98.40;;;;;;5074104;28;20410;-75
2023/03/04 08:24:40;;;;;;;7.50;0.50;;;9.00;98.70;;;;;;5073521;28;20059;-80
2023/03/04 08:27:05;;;;;;;6.78;1.08;;;9.00;98.70;;;;;;5055548;28;20047;-82
2023/03/04 08:29:31;;;;;;;6.15;0.52;;;8.90;98.80;;;;;;5075299;28;20457;-75
2023/03/04 08:31:57;;;;;;;11.15;1.23;;;8.90;99.10;;;;;;5075827;28;20064;-75
2023/03/04 08:34:25;;;;;;;6.28;0.63;;;8.80;99.20;;;;;;5058302;28;20400;-75
2023/03/04 08:36:51;;;;;;;9.52;0.70;;;8.80;99.20;;;;;;5075474;28;20078;-77
2023/03/04 08:39:18;;;;;;;7.13;1.15;;;8.70;99.40;;;;;;5075050;28;20032;-75
2023/03/04 08:41:44;;;;;;;7.82;0.95;;;8.70;99.60;;;;;;5059011;28;20111;-74
2023/03/04 08:44:10;;;;;;;7.70;0.88;;;8.70;99.90;;;;;;5074741;28;20036;-82
2023/03/04 08:46:37;;;;;;;7.97;0.93;;;8.70;99.90;;;;;;5092001;28;20024;-80
2023/03/04 08:49:03;;;;;;;8.20;0.60;;;8.70;99.90;;;;;;5075010;28;20510;-76
2023/03/04 08:51:29;;;;;;;9.60;0.68;;;8.70;99.90;;;;;;5093195;28;20028;-80
2023/03/04 08:53:55;;;;;;;8.25;0.50;;;8.70;99.90;;;;;;5074939;28;20027;-76
2023/03/04 08:56:21;;;;;;;12.57;1.10;;;8.70;99.90;;;;;;5075310;28;20020;-81
2023/03/04 08:58:47;;;;;;;6.72;0.50;;;8.70;99.90;;;;;;5074992;28;20107;-77
2023/03/04 09:01:14;;;;;;;6.65;0.75;;;8.70;99.90;;;;;;5058245;28;20055;-80
2023/03/04 09:03:40;;;;;;;4.78;0.50;;;8.70;99.90;;;;;;5075082;28;20035;-79
2023/03/04 09:06:07;;;;;;;6.65;0.50;;;8.70;99.90;;;;;;5074856;28;20043;-80
2023/03/04 09:08:34;;;;;;;5.85;0.73;;;8.80;99.90;;;;;;5092934;28;20483;-78
2023/03/04 09:10:59;;;;;;;7.00;0.73;;;8.80;99.90;;;;;;5074769;28;20047;-83
2023/03/04 09:13:28;;;;;;;7.57;0.63;;;8.90;99.90;;;;;;5074621;28;20032;-83
2023/03/04 09:15:54;;;;;;;6.75;0.80;;;8.90;99.90;;;;;;5093731;28;20105;-83
2023/03/04 09:18:22;;;;;;;5.05;0.50;;;9.10;99.90;;;;;;5093326;28;20025;-82
2023/03/04 09:20:48;;;;;;;4.00;0.43;;;9.10;99.90;;;;;;5058173;28;20039;-81
2023/03/04 09:23:15;;;;;;;4.88;0.47;;;9.10;99.90;;;;;;5093067;28;20110;-77
2023/03/04 09:25:41;;;;;;;2.08;0.30;;;9.10;99.90;;;;;;5075503;28;20054;-81
2023/03/04 09:28:07;;;;;;;2.83;0.32;;;9.20;99.90;;;;;;5074800;28;20025;-76
2023/03/04 09:30:34;;;;;;;6.40;0.50;;;9.30;99.90;;;;;;5070872;28;20052;-78
2023/03/04 09:33:00;;;;;;;7.50;0.70;;;9.40;99.90;;;;;;5072311;28;20028;-78
2023/03/04 09:35:26;;;;;;;11.25;0.80;;;9.40;99.90;;;;;;5071264;28;20081;-82
2023/03/04 09:37:52;;;;;;;5.45;0.50;;;9.40;99.90;;;;;;5071326;28;20120;-80
2023/03/04 09:40:25;;;;;;;5.63;0.90;;;9.50;99.90;;;;;;5071118;28;20572;-78
2023/03/04 09:42:57;;;;;;;28.77;4.75;;;9.50;99.90;;;;;;5072468;28;20028;-72
2023/03/04 09:45:28;;;;;;;23.92;3.25;;;9.60;99.90;;;;;;5072541;28;20024;-74
2023/03/04 09:47:55;;;;;;;6.32;0.77;;;9.60;99.90;;;;;;5071738;28;20365;-80
2023/03/04 09:50:21;;;;;;;6.63;1.08;;;9.50;99.90;;;;;;5071000;28;20047;-74
2023/03/04 09:52:50;;;;;;;5.88;0.63;;;9.50;99.90;;;;;;5071362;28;20040;-73
2023/03/04 09:55:40;;;;;;;7.57;0.93;;;9.50;99.90;;;;;;5072619;28;20093;-75
2023/03/04 09:58:32;;;;;;;18.60;2.63;;;9.60;99.90;;;;;;5074129;28;20034;-73
2023/03/04 10:01:37;;;;;;;5.50;0.77;;;9.70;99.90;;;;;;5076736;28;20028;-75
2023/03/04 10:04:16;;;;;;;4.35;0.47;;;9.70;99.90;;;;;;5017481;28;20029;-81
2023/03/04 10:06:45;;;;;;;3.88;0.65;;;9.70;99.90;;;;;;5068346;28;20040;-80
2023/03/04 10:09:20;;;;;;;4.85;0.50;;;9.70;99.90;;;;;;5075365;28;20032;-75
2023/03/04 10:11:50;;;;;;;3.90;0.30;;;9.70;99.90;;;;;;5076050;28;20028;-76
2023/03/04 10:14:21;;;;;;;4.40;0.30;;;9.70;99.90;;;;;;5075565;28;20043;-77
2023/03/04 10:17:05;;;;;;;2.13;0.25;;;9.60;99.90;;;;;;5074749;28;20063;-77
2023/03/04 10:20:01;;;;;;;3.53;0.45;;;9.50;99.90;;;;;;5076173;28;20081;-76
2023/03/04 10:22:36;;;;;;;4.47;0.70;;;9.50;99.90;;;;;;5074831;28;20029;-77
2023/03/04 10:25:35;;;;;;;4.25;0.68;;;9.50;99.90;;;;;;5074310;28;20028;-76
2023/03/04 10:28:22;;;;;;;4.10;0.52;;;9.60;99.90;;;;;;5042066;28;20102;-76
2023/03/04 10:31:03;;;;;;;4.35;0.50;;;9.70;99.90;;;;;;5077468;28;20075;-76
2023/03/04 10:33:31;;;;;;;2.55;0.47;;;9.70;99.90;;;;;;5077781;28;20451;-76
2023/03/04 10:36:18;;;;;;;7.20;0.70;;;9.80;99.90;;;;;;5078256;28;20024;-76
2023/03/04 10:38:44;;;;;;;3.10;0.35;;;9.80;99.90;;;;;;5077915;28;20125;-76
2023/03/04 10:41:19;;;;;;;2.80;0.30;;;9.80;99.90;;;;;;5095354;28;20032;-76
2023/03/04 10:43:58;;;;;;;14.60;1.50;;;9.70;99.90;;;;;;5078154;28;20360;-76
2023/03/04 10:46:25;;;;;;;5.13;0.82;;;9.70;99.90;;;;;;5096215;28;20028;-76
2023/03/04 10:48:52;;;;;;;5.72;0.50;;;9.80;99.90;;;;;;5061360;28;20418;-76
2023/03/04 10:51:29;;;;;;;5.00;0.65;;;9.70;99.90;;;;;;5077438;28;20032;-76
2023/03/04 10:54:09;;;;;;;2.10;0.32;;;9.60;99.90;;;;;;5060789;28;20537;-76
2023/03/04 10:56:45;;;;;;;2.42;0.25;;;9.70;99.90;;;;;;5095460;28;20028;-76
2023/03/04 10:59:33;;;;;;;3.75;0.45;;;9.70;99.90;;;;;;5095367;28;20071;-76
2023/03/04 11:02:00;;;;;;;4.28;0.65;;;9.80;99.90;;;;;;5077042;28;20081;-77
2023/03/04 11:04:31;;;;;;;1.98;0.30;;;9.80;99.90;;;;;;5077008;28;20058;-76
2023/03/04 11:06:57;;;;;;;4.45;0.90;;;9.70;99.90;;;;;;5077345;28;20024;-77
2023/03/04 11:09:30;;;;;;;2.58;0.20;;;9.80;99.90;;;;;;5059936;28;20105;-76
2023/03/04 11:12:01;;;;;;;6.18;0.40;;;9.80;99.90;;;;;;5077063;28;20164;-77
2023/03/04 11:14:34;;;;;;;1.13;0.20;;;9.70;99.90;;;;;;5076621;28;20020;-76
2023/03/04 11:17:02;;;;;;;3.53;0.32;;;9.80;99.90;;;;;;5094846;28;20030;-77
2023/03/04 11:19:38;;;;;;;5.28;0.50;;;9.70;99.90;;;;;;5077074;28;20032;-76
2023/03/04 11:22:04;;;;;;;3.70;0.30;;;9.70;99.90;;;;;;5094490;28;20028;-76
2023/03/04 11:24:33;;;;;;;1.20;0.20;;;9.60;99.90;;;;;;5076711;28;20112;-75
2023/03/04 11:27:32;;;;;;;2.58;0.20;;;9.70;99.90;;;;;;5076489;28;20059;-75
2023/03/04 11:30:22;;;;;;;0.80;0.10;;;9.70;99.90;;;;;;5075918;28;20063;-75
2023/03/04 11:32:50;;;;;;;3.55;0.50;;;10.00;99.90;;;;;;5076890;28;20040;-78
2023/03/04 11:35:57;;;;;;;1.92;0.30;;;10.10;99.90;;;;;;5076763;28;20465;-75
2023/03/04 11:38:38;;;;;;;2.35;0.20;;;10.30;99.90;;;;;;5076896;28;20085;-75
2023/03/04 11:41:12;;;;;;;1.15;0.10;;;10.50;99.90;;;;;;5076460;28;20031;-75
2023/03/04 11:43:41;;;;;;;4.28;0.30;;;10.50;99.90;;;;;;5075606;28;20024;-76
2023/03/04 11:46:25;;;;;;;3.65;0.63;;;10.60;99.90;;;;;;5076512;28;20020;-75
2023/03/04 11:49:28;;;;;;;1.98;0.20;;;10.50;99.90;;;;;;5076010;28;20035;-75
2023/03/04 11:52:16;;;;;;;1.30;0.20;;;10.60;99.90;;;;;;5076918;28;20165;-75
2023/03/04 11:55:04;;;;;;;2.03;0.20;;;10.70;99.90;;;;;;5083913;28;20405;-75
2023/03/04 11:57:51;;;;;;;2.95;0.30;;;10.60;99.90;;;;;;5076135;28;20024;-74
2023/03/04 12:00:20;;;;;;;3.50;0.50;;;10.50;99.90;;;;;;5094944;28;20028;-74
2023/03/04 12:03:22;;;;;;;3.50;0.30;;;10.50;99.90;;;;;;5095507;28;20432;-76
2023/03/04 12:06:01;;;;;;;5.05;0.55;;;10.60;99.90;;;;;;5094617;28;20357;-75
2023/03/04 12:08:35;;;;;;;4.60;0.40;;;10.50;99.90;;;;;;5094498;28;20016;-75
2023/03/04 12:11:12;;;;;;;2.78;0.50;;;10.60;99.90;;;;;;5075842;28;20036;-76
2023/03/04 12:13:56;;;;;;;4.95;0.63;;;10.60;99.90;;;;;;5076007;28;20433;-76
2023/03/04 12:16:43;;;;;;;2.42;0.55;;;10.50;99.90;;;;;;5076640;28;20077;-75
2023/03/04 12:19:20;;;;;;;1.75;0.30;;;10.40;99.90;;;;;;5094139;28;20024;-75
2023/03/04 12:21:55;;;;;;;1.27;0.10;;;10.50;99.90;;;;;;5093590;28;20073;-77
2023/03/04 12:24:38;;;;;;;1.98;0.20;;;10.60;99.90;;;;;;5093679;28;20052;-74
2023/03/04 12:27:19;;;;;;;1.17;0.20;;;10.80;99.90;;;;;;5075924;28;20028;-84
2023/03/04 12:30:04;;;;;;;0.60;0.10;;;10.90;99.90;;;;;;5075793;28;20051;-82
2023/03/04 12:32:51;;;;;;;3.25;0.10;;;11.10;99.90;;;;;;5076127;28;20032;-82
2023/03/04 12:35:40;;;;;;;3.72;0.63;;;11.00;99.90;;;;;;5075585;28;20372;-78
2023/03/04 12:38:46;;;;;;;2.25;0.30;;;11.10;99.90;;;;;;5036395;28;20518;-75
2023/03/04 12:41:17;;;;;;;2.95;0.32;;;10.90;99.90;;;;;;5089480;28;20036;-74
2023/03/04 12:43:58;;;;;;;2.60;0.20;;;10.70;99.90;;;;;;5093385;28;20111;-77
2023/03/04 12:46:47;;;;;;;5.03;0.40;;;10.50;99.90;;;;;;5093639;28;20028;-77
2023/03/04 12:49:29;;;;;;;8.32;0.70;;;10.30;99.90;;;;;;5075259;28;20024;-74
2023/03/04 12:52:14;;;;;;;4.40;0.50;;;10.00;99.90;;;;;;5093459;28;20035;-76
2023/03/04 12:54:44;;;;;;;7.63;1.10;;;10.00;99.90;;;;;;5075121;28;20024;-76
2023/03/04 12:57:20;;;;;;;6.05;0.75;;;9.80;99.90;;;;;;5075262;28;20127;-77
2023/03/04 12:59:50;;;;;;;5.40;0.60;;;9.70;99.90;;;;;;5075531;28;20027;-77
2023/03/04 13:02:34;;;;;;;4.35;0.50;;;9.70;99.90;;;;;;5075556;28;20122;-76
2023/03/04 13:05:22;;;;;;;5.85;0.60;;;9.80;99.90;;;;;;5074874;28;20031;-74